Time;durP1;ratioP1;P1;durP2;ratioP2;P2;SDS_P1;SDS_P2;PMS_P1;PMS_P2;Temp;Humidity;BMP_temperature;BMP_pressure;BME280_temperature;BME280_humidity;BME280_pressure;Samples;Min_cycle;Max_cycle;Signal;HPM_P1;HPM_P2
2022/05/04 00:02:03;;;;;;;15.48;12.00;;;;;;;10.15;67.02;100507.66;5094092;28;20056;-59
2022/05/04 00:04:30;;;;;;;15.03;12.07;;;;;;;10.13;66.85;100505.19;5093907;28;20048;-59
2022/05/04 00:06:57;;;;;;;13.95;11.50;;;;;;;10.06;67.01;100502.00;5093342;28;20063;-60
2022/05/04 00:09:25;;;;;;;13.02;10.23;;;;;;;10.08;66.58;100507.25;5086831;28;20066;-60
2022/05/04 00:11:52;;;;;;;12.85;9.68;;;;;;;10.04;66.22;100500.69;5093179;28;20048;-59
2022/05/04 00:14:19;;;;;;;13.23;10.18;;;;;;;10.02;66.10;100498.19;5092684;28;20052;-59
2022/05/04 00:16:47;;;;;;;13.45;9.48;;;;;;;9.98;65.93;100499.13;5091934;28;20424;-59
2022/05/04 00:19:16;;;;;;;12.00;10.35;;;;;;;9.94;65.88;100504.47;5092386;28;20075;-59
2022/05/04 00:21:43;;;;;;;13.53;9.87;;;;;;;9.87;66.22;100502.13;5090500;28;20055;-59
2022/05/04 00:24:10;;;;;;;12.57;10.00;;;;;;;9.85;65.96;100496.03;5093000;28;20048;-60
2022/05/04 00:26:38;;;;;;;13.23;9.82;;;;;;;9.81;65.80;100502.53;5074758;28;20055;-59
2022/05/04 00:29:05;;;;;;;11.32;9.35;;;;;;;9.79;65.97;100502.00;5092838;28;20048;-60
2022/05/04 00:31:32;;;;;;;14.32;10.30;;;;;;;9.75;66.05;100502.63;5093906;28;20056;-60
2022/05/04 00:34:00;;;;;;;13.82;10.57;;;;;;;9.69;66.68;100501.06;5093354;28;20063;-60
2022/05/04 00:36:28;;;;;;;15.13;11.07;;;;;;;9.68;66.28;100499.44;5092218;28;20052;-59
2022/05/04 00:38:56;;;;;;;15.35;11.10;;;;;;;9.63;66.87;100491.16;5092723;28;20044;-60
2022/05/04 00:41:23;;;;;;;16.83;13.43;;;;;;;9.60;67.18;100497.34;5093280;28;20059;-59
2022/05/04 00:43:52;;;;;;;13.93;10.93;;;;;;;9.57;67.04;100502.69;5093348;28;20389;-59
2022/05/04 00:46:20;;;;;;;14.68;10.18;;;;;;;9.54;67.22;100504.16;5093431;28;20432;-59
2022/05/04 00:48:48;;;;;;;15.15;10.70;;;;;;;9.54;67.32;100498.59;5093289;28;20056;-59
2022/05/04 00:51:16;;;;;;;15.57;11.32;;;;;;;9.50;67.31;100492.81;5091990;28;20052;-59
2022/05/04 00:53:46;;;;;;;13.35;10.00;;;;;;;9.48;66.78;100494.25;5092773;28;20052;-59
2022/05/04 00:56:13;;;;;;;;;;;;;;;9.40;68.00;100497.72;5093060;28;20413;-59
2022/05/04 00:58:55;;;;;;;13.75;9.80;;;;;;;9.38;67.35;100492.47;5091282;28;19920;-59
2022/05/04 01:01:24;;;;;;;15.25;11.90;;;;;;;9.34;67.21;100503.41;5087667;28;20052;-59
2022/05/04 01:03:51;;;;;;;14.30;10.75;;;;;;;9.31;67.40;100501.22;5092853;28;20055;-58
2022/05/04 01:06:19;;;;;;;12.35;10.15;;;;;;;9.27;66.95;100500.16;5092794;28;20462;-59
2022/05/04 01:08:49;;;;;;;13.70;10.63;;;;;;;9.26;67.05;100497.69;5092784;28;20412;-59
2022/05/04 01:11:16;;;;;;;;;;;;;;;9.20;67.55;100498.91;5090939;28;20063;-59
2022/05/04 01:13:43;;;;;;;15.20;10.23;;;;;;;9.14;67.25;100495.41;5093149;28;19943;-59
2022/05/04 01:16:11;;;;;;;13.18;10.60;;;;;;;9.13;67.92;100499.31;5092222;28;20432;-59
2022/05/04 01:18:38;;;;;;;13.73;10.30;;;;;;;9.13;67.48;100497.38;5093083;28;20405;-59
2022/05/04 01:21:07;;;;;;;16.17;10.90;;;;;;;9.12;67.48;100504.03;5092800;28;20051;-59
2022/05/04 01:23:36;;;;;;;13.15;10.60;;;;;;;9.07;67.36;100501.38;5092227;28;20052;-59
2022/05/04 01:26:05;;;;;;;13.68;10.40;;;;;;;9.08;67.86;100502.19;5091654;28;20043;-59
2022/05/04 01:28:32;;;;;;;13.38;10.30;;;;;;;9.03;67.48;100499.47;5092049;28;20044;-59
2022/05/04 01:31:00;;;;;;;14.60;10.45;;;;;;;9.00;67.83;100497.31;5091249;28;20488;-59
2022/05/04 01:33:27;;;;;;;15.07;10.40;;;;;;;8.97;67.33;100492.38;5091353;28;20047;-59
2022/05/04 01:35:55;;;;;;;13.70;9.93;;;;;;;8.96;67.57;100496.28;5091089;28;20051;-59
2022/05/04 01:38:22;;;;;;;13.45;10.00;;;;;;;8.94;67.92;100497.41;5091780;28;20059;-59
2022/05/04 01:40:51;;;;;;;14.35;11.07;;;;;;;8.92;67.88;100496.88;5090047;28;20047;-59
2022/05/04 01:43:18;;;;;;;14.23;10.05;;;;;;;8.88;67.96;100498.63;5092270;28;20056;-59
2022/05/04 01:45:46;;;;;;;12.85;9.52;;;;;;;8.85;67.87;100488.09;5092394;28;20052;-59
2022/05/04 01:48:13;;;;;;;12.48;9.98;;;;;;;8.78;67.34;100498.78;5092065;28;20047;-59
2022/05/04 01:50:41;;;;;;;13.70;9.68;;;;;;;8.68;67.79;100493.38;5091588;28;20052;-59
2022/05/04 01:53:08;;;;;;;14.63;10.18;;;;;;;8.63;68.07;100494.28;5091842;28;20050;-58
2022/05/04 01:55:37;;;;;;;15.73;10.52;;;;;;;8.58;68.33;100490.75;5092461;28;20044;-60
2022/05/04 01:58:07;;;;;;;13.73;10.80;;;;;;;8.61;67.97;100493.75;5090662;28;20060;-60
2022/05/04 02:00:35;;;;;;;13.80;9.88;;;;;;;8.61;68.56;100498.47;5092077;28;20052;-60
2022/05/04 02:03:02;;;;;;;15.57;10.93;;;;;;;8.61;68.71;100504.88;5090488;28;20056;-60
2022/05/04 02:05:30;;;;;;;16.52;10.93;;;;;;;8.61;68.92;100496.53;5092332;28;20047;-60
2022/05/04 02:07:57;;;;;;;14.73;10.85;;;;;;;8.62;68.75;100489.03;5091975;28;20056;-59
2022/05/04 02:10:24;;;;;;;13.32;10.85;;;;;;;8.62;68.70;100489.84;5091657;28;20059;-60
2022/05/04 02:12:52;;;;;;;14.85;10.52;;;;;;;8.62;68.33;100492.63;5091818;28;20047;-59
2022/05/04 02:15:21;;;;;;;15.13;11.98;;;;;;;8.60;68.87;100494.06;5091350;28;20481;-59
2022/05/04 02:17:48;;;;;;;17.10;12.33;;;;;;;8.58;68.43;100494.34;5089983;28;20040;-59
2022/05/04 02:20:15;;;;;;;14.63;11.63;;;;;;;8.57;69.20;100492.72;5092206;28;20470;-58
2022/05/04 02:22:43;;;;;;;14.13;10.82;;;;;;;8.56;68.72;100490.22;5088625;28;20052;-59
2022/05/04 02:25:10;;;;;;;13.05;10.65;;;;;;;8.56;68.30;100493.81;5090325;28;20056;-57
2022/05/04 02:27:38;;;;;;;15.05;11.45;;;;;;;8.53;68.54;100492.47;5092052;28;20063;-58
2022/05/04 02:30:09;;;;;;;14.13;10.45;;;;;;;8.53;68.21;100491.66;5091784;28;20472;-59
2022/05/04 02:32:38;;;;;;;14.45;10.15;;;;;;;8.49;68.50;100485.88;5090637;28;20044;-59
2022/05/04 02:38:00;;;;;;;13.65;10.77;;;;;;;8.44;68.26;100483.19;5092486;28;20093;-58
2022/05/04 02:40:28;;;;;;;14.90;10.90;;;;;;;8.34;68.37;100483.31;5071750;28;20056;-58
2022/05/04 02:42:55;;;;;;;16.45;11.05;;;;;;;8.34;67.75;100478.56;5090964;28;20052;-59
2022/05/04 02:45:23;;;;;;;13.30;10.82;;;;;;;8.33;68.09;100476.91;5090825;28;20056;-59
2022/05/04 02:47:52;;;;;;;16.08;11.63;;;;;;;8.32;67.18;100480.00;5090287;28;20070;-59
2022/05/04 02:50:19;;;;;;;14.93;10.85;;;;;;;8.29;68.18;100477.81;5090781;28;20559;-59
2022/05/04 02:52:47;;;;;;;14.40;10.82;;;;;;;8.26;68.38;100476.47;5091629;28;20040;-56
2022/05/04 02:55:14;;;;;;;19.73;14.10;;;;;;;8.20;68.73;100477.66;5091450;28;20059;-57
2022/05/04 02:57:42;;;;;;;16.80;13.10;;;;;;;8.19;68.61;100476.00;5090552;28;20443;-59
2022/05/04 03:00:10;;;;;;;15.52;11.70;;;;;;;8.19;68.14;100481.56;5091493;28;20515;-59
2022/05/04 03:02:38;;;;;;;14.43;11.38;;;;;;;8.17;68.80;100471.88;5091826;28;20484;-57
2022/05/04 03:05:09;;;;;;;15.25;10.73;;;;;;;8.17;68.69;100480.19;5091625;28;20430;-59
2022/05/04 03:07:39;;;;;;;16.27;11.27;;;;;;;8.15;68.50;100480.50;5091918;28;20118;-58
2022/05/04 03:10:08;;;;;;;16.40;10.80;;;;;;;8.16;69.51;100484.09;5090877;28;20063;-58
2022/05/04 03:12:36;;;;;;;14.20;11.00;;;;;;;8.17;68.18;100474.63;5090861;28;20400;-57
2022/05/04 03:15:04;;;;;;;16.40;12.23;;;;;;;8.19;69.00;100475.16;5090903;28;20051;-58
2022/05/04 03:17:31;;;;;;;15.20;10.68;;;;;;;8.18;68.94;100476.31;5091219;28;20468;-58
2022/05/04 03:19:59;;;;;;;15.43;11.57;;;;;;;8.17;68.38;100472.72;5091546;28;20052;-59
2022/05/04 03:22:29;;;;;;;14.02;10.82;;;;;;;8.14;68.65;100473.28;5090849;28;20051;-59
2022/05/04 03:24:57;;;;;;;14.93;10.80;;;;;;;8.10;68.40;100470.28;5090760;28;20400;-59
2022/05/04 03:27:24;;;;;;;16.00;10.95;;;;;;;8.07;68.08;100476.44;5089655;28;20063;-58
2022/05/04 03:29:52;;;;;;;13.13;9.63;;;;;;;8.05;67.69;100466.78;5092495;28;20400;-59
2022/05/04 03:32:19;;;;;;;15.45;12.13;;;;;;;8.00;68.33;100475.13;5094575;28;20052;-55
2022/05/04 03:34:47;;;;;;;14.70;11.35;;;;;;;7.97;68.26;100468.25;5093638;28;20346;-57
2022/05/04 03:37:14;;;;;;;17.45;12.35;;;;;;;7.95;68.27;100476.03;5093904;28;20048;-58
2022/05/04 03:39:43;;;;;;;17.55;10.70;;;;;;;7.96;68.47;100472.16;5094900;28;20052;-59
2022/05/04 03:42:12;;;;;;;18.23;11.30;;;;;;;7.92;68.90;100474.69;5093967;28;20048;-59
2022/05/04 03:44:39;;;;;;;16.35;11.23;;;;;;;7.92;68.71;100471.09;5094615;28;20452;-56
2022/05/04 03:47:07;;;;;;;14.80;10.40;;;;;;;7.88;68.35;100472.81;5093996;28;20516;-56
2022/05/04 03:49:35;;;;;;;13.50;10.13;;;;;;;7.87;68.86;100474.78;5095054;28;20388;-57
2022/05/04 03:52:03;;;;;;;13.77;10.27;;;;;;;7.83;68.50;100462.63;5094478;28;20048;-57
2022/05/04 03:54:31;;;;;;;13.00;10.57;;;;;;;7.83;68.21;100470.09;5094134;28;20056;-58
2022/05/04 03:56:59;;;;;;;15.88;10.88;;;;;;;7.84;68.68;100460.66;5092313;28;20048;-58
2022/05/04 03:59:26;;;;;;;15.13;10.05;;;;;;;7.79;68.90;100461.56;5094188;28;20055;-57
2022/05/04 04:01:54;;;;;;;13.43;10.27;;;;;;;7.82;68.46;100460.94;5093828;28;20052;-58
2022/05/04 04:04:21;;;;;;;14.23;10.65;;;;;;;7.81;68.08;100469.56;5094000;28;20063;-59
2022/05/04 04:06:48;;;;;;;14.02;10.60;;;;;;;7.80;69.38;100462.38;5094018;28;20048;-59
2022/05/04 04:09:16;;;;;;;12.88;10.02;;;;;;;7.81;68.96;100469.56;5094002;28;20063;-56
2022/05/04 04:11:45;;;;;;;12.45;9.98;;;;;;;7.78;68.44;100468.22;5091913;28;20048;-59
2022/05/04 04:14:14;;;;;;;12.95;9.50;;;;;;;7.80;68.43;100468.75;5107793;28;20056;-56
2022/05/04 04:16:41;;;;;;;13.35;9.45;;;;;;;7.81;68.13;100470.41;5095266;27;20052;-57
2022/05/04 04:19:09;;;;;;;14.80;10.48;;;;;;;7.82;68.84;100471.22;5093710;28;20488;-56
2022/05/04 04:21:52;;;;;;;12.48;10.40;;;;;;;7.82;68.20;100474.81;5093441;28;20044;-58
2022/05/04 04:24:20;;;;;;;14.70;10.90;;;;;;;7.78;68.39;100473.75;5074007;28;20056;-57
2022/05/04 04:26:47;;;;;;;18.13;11.80;;;;;;;7.80;68.69;100468.75;5092276;28;20051;-57
2022/05/04 04:29:16;;;;;;;13.02;10.48;;;;;;;7.83;68.64;100478.41;5093325;28;20059;-58
2022/05/04 04:31:44;;;;;;;13.40;10.63;;;;;;;7.85;68.87;100481.72;5093194;28;20416;-58
2022/05/04 04:34:11;;;;;;;15.68;10.65;;;;;;;7.88;68.67;100483.91;5093319;28;20482;-59
2022/05/04 04:36:38;;;;;;;19.85;12.32;;;;;;;7.95;69.92;100487.13;5092680;28;20048;-58
2022/05/04 04:39:06;;;;;;;14.60;10.93;;;;;;;7.98;69.80;100481.00;5092759;28;20052;-59
2022/05/04 04:41:33;;;;;;;14.82;11.63;;;;;;;8.05;69.93;100480.63;5090774;28;20066;-59
2022/05/04 04:44:01;;;;;;;14.73;12.18;;;;;;;8.10;69.50;100486.94;5093055;28;20059;-59
2022/05/04 04:46:29;;;;;;;18.70;14.82;;;;;;;8.18;69.29;100481.84;5092796;28;20392;-57
2022/05/04 04:48:58;;;;;;;16.35;13.95;;;;;;;8.25;68.77;100479.53;5093957;28;20067;-57
2022/05/04 04:51:25;;;;;;;16.98;12.30;;;;;;;8.31;68.54;100490.25;5092464;28;20051;-58
2022/05/04 04:53:52;;;;;;;15.05;11.52;;;;;;;8.35;68.72;100493.25;5087632;28;20083;-57
2022/05/04 04:56:20;;;;;;;15.70;11.52;;;;;;;8.39;68.65;100497.09;5092628;28;20570;-56
2022/05/04 04:58:47;;;;;;;14.40;11.73;;;;;;;8.44;68.81;100494.28;5089677;28;20063;-56
2022/05/04 05:01:15;;;;;;;15.70;11.15;;;;;;;8.53;68.51;100494.44;5093160;28;20066;-59
2022/05/04 05:03:43;;;;;;;16.58;13.02;;;;;;;8.60;69.11;100496.84;5093164;28;20047;-57
2022/05/04 05:06:12;;;;;;;16.10;10.98;;;;;;;8.66;68.76;100495.63;5092961;28;20047;-58
2022/05/04 05:08:41;;;;;;;15.27;11.43;;;;;;;8.77;68.63;100505.44;5092621;28;20056;-59
2022/05/04 05:11:08;;;;;;;15.00;10.80;;;;;;;8.85;68.43;100504.75;5090806;28;20051;-59
2022/05/04 05:16:06;;;;;;;16.73;12.20;;;;;;;8.98;68.55;100503.16;5092029;28;20056;-59
2022/05/04 05:16:23;;;;;;;17.77;13.48;;;;;;;9.11;68.33;100501.56;5092088;28;20058;-57
2022/05/04 05:18:51;;;;;;;13.50;10.63;;;;;;;9.24;68.12;100495.25;5092828;28;20063;-57
2022/05/04 05:21:19;;;;;;;14.57;11.73;;;;;;;9.34;68.06;100506.19;5092402;28;20055;-58
2022/05/04 05:23:46;;;;;;;16.00;12.30;;;;;;;9.43;67.68;100495.19;5088084;28;20055;-59
2022/05/04 05:26:14;;;;;;;13.93;10.90;;;;;;;9.54;67.89;100495.81;5092298;28;20059;-59
2022/05/04 05:28:41;;;;;;;13.80;10.90;;;;;;;9.65;67.59;100493.66;5092460;28;20055;-57
2022/05/04 05:31:08;;;;;;;13.70;11.35;;;;;;;9.79;67.07;100488.09;5092810;28;20055;-58
2022/05/04 05:33:36;;;;;;;13.45;10.98;;;;;;;9.92;66.77;100490.88;5090896;28;20424;-59
2022/05/04 05:36:05;;;;;;;15.10;11.70;;;;;;;10.10;66.79;100489.13;5092342;28;20444;-53
2022/05/04 05:38:32;;;;;;;15.25;10.43;;;;;;;10.18;66.18;100486.72;5091024;28;20048;-49
2022/05/04 05:41:01;;;;;;;13.82;10.90;;;;;;;10.30;66.16;100485.09;5082110;28;20063;-50
2022/05/04 05:43:29;;;;;;;15.90;10.70;;;;;;;10.42;65.54;100484.56;5085825;28;20385;-53
2022/05/04 05:45:57;;;;;;;14.77;11.43;;;;;;;10.40;65.25;100484.03;5086806;28;20420;-54
2022/05/04 05:48:24;;;;;;;13.48;10.30;;;;;;;10.59;65.04;100488.66;5083853;28;20047;-50
2022/05/04 05:50:52;;;;;;;14.10;11.13;;;;;;;10.71;64.62;100488.91;5087049;28;20052;-51
2022/05/04 05:53:22;;;;;;;14.20;10.48;;;;;;;10.79;64.46;100492.88;5084486;28;20056;-54
2022/05/04 05:55:50;;;;;;;16.90;12.95;;;;;;;10.86;63.92;100493.28;5086478;28;20527;-51
2022/05/04 05:58:18;;;;;;;14.85;10.95;;;;;;;10.96;63.45;100499.44;5085358;28;20056;-51
2022/05/04 06:00:45;;;;;;;14.30;11.27;;;;;;;11.03;63.16;100504.56;5084597;28;20117;-54
2022/05/04 06:03:14;;;;;;;13.27;10.00;;;;;;;11.13;63.20;100489.56;5084742;28;20067;-53
2022/05/04 06:05:42;;;;;;;14.20;11.38;;;;;;;11.26;62.77;100483.06;5083774;28;20060;-52
2022/05/04 06:08:10;;;;;;;15.27;11.05;;;;;;;11.30;62.40;100475.72;5085421;28;20048;-50
2022/05/04 06:10:39;;;;;;;16.27;11.27;;;;;;;11.32;62.56;100492.94;5084885;28;20056;-52
2022/05/04 06:13:07;;;;;;;14.05;9.40;;;;;;;11.47;62.58;100486.16;5084500;28;20443;-51
2022/05/04 06:15:35;;;;;;;12.73;10.80;;;;;;;11.55;61.90;100496.53;5081558;28;20056;-52
2022/05/04 06:18:02;;;;;;;12.73;9.90;;;;;;;11.70;61.51;100495.28;5086099;28;20051;-49
2022/05/04 06:20:29;;;;;;;14.50;9.57;;;;;;;11.71;61.58;100485.75;5085694;28;20056;-52
2022/05/04 06:22:57;;;;;;;14.32;10.70;;;;;;;11.87;60.78;100488.13;5086495;28;20067;-53
2022/05/04 06:25:24;;;;;;;10.90;8.82;;;;;;;11.98;60.84;100484.72;5085688;28;20059;-49
2022/05/04 06:27:53;;;;;;;13.10;9.18;;;;;;;12.02;60.70;100489.69;5086537;28;20515;-51
2022/05/04 06:35:50;;;;;;;14.60;9.13;;;;;;;12.26;60.01;100486.44;5091397;28;20067;-55
2022/05/04 06:38:17;;;;;;;14.13;8.98;;;;;;;12.31;59.65;100491.91;5085215;28;20063;-51
2022/05/04 06:40:44;;;;;;;13.50;9.13;;;;;;;12.41;60.01;100486.00;5088565;28;20044;-52
2022/05/04 06:43:13;;;;;;;11.95;8.90;;;;;;;12.53;58.97;100494.53;5090614;28;20472;-50
2022/05/04 06:45:41;;;;;;;15.53;9.43;;;;;;;12.67;58.67;100493.56;5091610;28;20048;-49
2022/05/04 06:48:09;;;;;;;14.20;9.98;;;;;;;12.82;58.45;100487.47;5090535;28;20377;-52
2022/05/04 06:50:36;;;;;;;13.55;9.55;;;;;;;13.04;58.47;100492.09;5091025;28;20389;-53
2022/05/04 06:53:04;;;;;;;15.75;10.15;;;;;;;13.06;57.81;100484.19;5089238;28;20052;-52
2022/05/04 06:55:31;;;;;;;11.40;9.27;;;;;;;13.28;57.39;100491.53;5091033;28;20408;-55
2022/05/04 06:57:58;;;;;;;13.15;9.43;;;;;;;13.46;56.47;100488.72;5090894;28;20059;-53
2022/05/04 07:00:27;;;;;;;15.00;10.23;;;;;;;13.63;56.29;100491.50;5090948;28;20055;-54
2022/05/04 07:02:55;;;;;;;16.23;9.93;;;;;;;13.68;56.48;100490.47;5091251;28;20484;-51
2022/05/04 07:05:22;;;;;;;12.52;9.05;;;;;;;13.72;56.12;100495.06;5093096;28;20055;-51
2022/05/04 07:07:50;;;;;;;13.68;10.07;;;;;;;13.93;55.82;100497.13;5093469;28;20048;-52
2022/05/04 07:10:17;;;;;;;12.85;9.52;;;;;;;14.14;55.59;100495.19;5093534;28;20055;-53
2022/05/04 07:12:44;;;;;;;14.43;9.60;;;;;;;14.33;55.55;100491.97;5095377;28;20394;-52
2022/05/04 07:15:14;;;;;;;12.60;10.15;;;;;;;14.52;54.80;100497.09;5095755;28;20048;-52
2022/05/04 07:17:43;;;;;;;13.45;10.80;;;;;;;14.72;53.33;100497.47;5094818;28;20048;-52
2022/05/04 07:20:12;;;;;;;15.70;10.60;;;;;;;15.21;53.04;100495.72;5095623;28;20115;-51
2022/05/04 07:22:40;;;;;;;14.73;10.40;;;;;;;15.90;51.04;100489.72;5093594;28;20048;-54
2022/05/04 07:25:08;;;;;;;15.55;11.25;;;;;;;16.48;49.63;100484.75;5095501;28;20408;-51
2022/05/04 07:27:35;;;;;;;12.73;8.85;;;;;;;16.90;48.96;100481.59;5094222;28;20044;-53
2022/05/04 07:30:03;;;;;;;15.55;10.95;;;;;;;17.55;46.95;100478.59;5095099;28;20052;-52
2022/05/04 07:32:33;;;;;;;13.10;10.20;;;;;;;18.10;45.75;100483.63;5094401;28;20048;-54
2022/05/04 07:35:02;;;;;;;11.15;9.95;;;;;;;18.75;44.36;100477.47;5095131;28;20052;-53
2022/05/04 07:37:29;;;;;;;15.35;11.52;;;;;;;18.82;43.56;100484.13;5093086;28;20079;-54
2022/05/04 07:42:42;;;;;;;14.10;11.07;;;;;;;19.91;41.34;100482.19;5098419;28;20052;-53
2022/05/04 07:45:11;;;;;;;12.23;10.93;;;;;;;20.45;40.64;100468.88;5095000;28;20061;-54
2022/05/04 07:47:39;;;;;;;15.00;11.07;;;;;;;20.93;39.62;100483.31;5094181;28;20445;-51
2022/05/04 07:50:11;;;;;;;12.10;10.77;;;;;;;21.75;37.73;100474.13;5094896;28;20055;-52
2022/05/04 07:52:39;;;;;;;14.63;10.60;;;;;;;22.66;36.19;100478.06;5094187;28;20055;-54
2022/05/04 07:55:08;;;;;;;14.25;10.07;;;;;;;23.50;34.56;100485.72;5094361;28;20515;-54
2022/05/04 07:57:35;;;;;;;12.32;11.02;;;;;;;24.38;32.65;100489.06;5092152;28;20408;-55
2022/05/04 08:05:40;;;;;;;12.73;10.05;;;;;;;26.02;30.09;100481.00;5060003;28;20360;-56
2022/05/04 08:08:08;;;;;;;12.40;9.35;;;;;;;26.81;29.04;100473.72;5053601;28;20053;-51
2022/05/04 08:10:36;;;;;;;11.33;8.80;;;;;;;27.35;28.29;100473.84;5053851;28;20057;-53
2022/05/04 08:13:03;;;;;;;11.65;9.85;;;;;;;27.74;27.94;100475.34;5053079;28;20045;-57
2022/05/04 08:15:31;;;;;;;15.88;10.07;;;;;;;27.51;27.83;100476.09;5052294;28;20045;-50
2022/05/04 08:17:59;;;;;;;12.98;9.52;;;;;;;27.85;26.88;100478.03;5052224;28;20053;-51
2022/05/04 08:20:28;;;;;;;9.20;8.27;;;;;;;27.25;27.87;100477.66;5051848;28;20045;-52
2022/05/04 08:22:57;;;;;;;11.48;8.93;;;;;;;26.98;27.90;100474.72;5047285;28;20483;-52
2022/05/04 08:25:24;;;;;;;;;;;;;;;26.16;28.50;100474.34;5048813;28;20053;-53
2022/05/04 08:27:52;;;;;;;11.18;9.93;;;;;;;25.90;29.42;100475.81;5047084;28;19920;-55
2022/05/04 08:30:20;;;;;;;9.75;8.73;;;;;;;25.08;30.75;100485.63;5047287;28;20063;-55
2022/05/04 08:32:48;;;;;;;11.38;9.05;;;;;;;24.74;31.10;100476.78;5047898;28;20421;-57
2022/05/04 08:35:15;;;;;;;10.68;8.43;;;;;;;24.38;31.09;100483.34;5046587;28;20056;-52
2022/05/04 08:37:43;;;;;;;12.57;9.38;;;;;;;24.05;31.81;100484.59;5030026;28;20065;-57
2022/05/04 08:40:13;;;;;;;10.30;8.77;;;;;;;23.99;31.73;100486.22;5046388;28;20049;-56
2022/05/04 08:42:43;;;;;;;10.68;8.52;;;;;;;23.98;32.01;100493.97;5047335;28;20618;-53
2022/05/04 08:45:12;;;;;;;11.23;9.10;;;;;;;24.48;31.58;100488.22;5048323;28;20568;-52
2022/05/04 08:47:40;;;;;;;11.10;8.98;;;;;;;25.55;30.42;100482.53;5046671;28;20528;-56
2022/05/04 08:50:11;;;;;;;10.18;8.50;;;;;;;26.56;28.82;100473.97;5037383;28;20059;-56
2022/05/04 08:52:40;;;;;;;13.13;8.90;;;;;;;27.28;28.65;100471.09;5041367;28;20064;-55
2022/05/04 08:55:10;;;;;;;12.07;8.95;;;;;;;28.45;26.41;100483.97;5046119;28;20055;-53
2022/05/04 08:57:40;;;;;;;10.65;7.80;;;;;;;29.64;24.96;100473.75;5046194;28;20057;-57
2022/05/04 09:00:10;;;;;;;12.10;9.98;;;;;;;30.91;22.81;100467.19;5085543;28;20048;-56
2022/05/04 09:02:39;;;;;;;9.27;7.32;;;;;;;32.26;22.40;100466.25;5084201;28;20052;-57
2022/05/04 09:05:23;;;;;;;10.48;8.35;;;;;;;33.80;20.86;100472.00;5084883;28;20052;-58
2022/05/04 09:07:52;;;;;;;10.32;8.25;;;;;;;34.87;19.37;100457.06;5087237;28;20051;-57
2022/05/04 09:10:22;;;;;;;10.20;8.00;;;;;;;35.95;17.84;100456.44;5086868;28;20044;-56
2022/05/04 09:12:53;;;;;;;8.07;7.22;;;;;;;36.52;17.58;100452.66;5086454;28;20056;-56
2022/05/04 09:15:23;;;;;;;10.73;8.45;;;;;;;37.17;16.75;100455.81;5087037;28;20056;-56
2022/05/04 09:17:58;;;;;;;8.00;7.20;;;;;;;37.42;16.26;100453.56;5085875;28;20420;-58
2022/05/04 09:23:13;;;;;;;8.15;7.35;;;;;;;38.15;15.99;100448.91;5096449;28;20055;-58
2022/05/04 09:25:40;;;;;;;;;;;;;;;38.81;15.54;100449.47;5086345;28;20048;-57
2022/05/04 09:28:13;;;;;;;7.85;7.10;;;;;;;39.20;14.64;100446.16;5088703;28;19920;-56
2022/05/04 09:30:46;;;;;;;8.10;7.15;;;;;;;39.76;14.03;100440.78;5087255;28;20056;-56
2022/05/04 09:33:17;;;;;;;9.90;6.57;;;;;;;40.03;14.44;100446.56;5090183;28;20056;-58
2022/05/04 09:35:45;;;;;;;8.35;7.20;;;;;;;40.35;13.81;100442.22;5089171;28;20058;-58
2022/05/04 09:46:42;;;;;;;8.50;6.63;;;;;;;41.17;12.82;100446.44;5094379;28;20408;-56
2022/05/04 09:49:14;;;;;;;7.72;6.88;;;;;;;41.41;12.74;100450.97;5089680;28;20063;-59
2022/05/04 09:51:45;;;;;;;8.73;6.80;;;;;;;41.64;12.95;100445.94;5086223;28;20055;-58
2022/05/04 09:54:17;;;;;;;8.43;7.40;;;;;;;41.86;13.09;100442.16;5088831;28;20058;-58
2022/05/04 09:57:00;;;;;;;9.25;8.23;;;;;;;41.32;12.52;100438.22;5080210;28;20048;-58
2022/05/04 09:59:30;;;;;;;8.48;6.70;;;;;;;41.71;12.32;100437.41;5087421;28;20055;-58
2022/05/04 10:01:59;;;;;;;9.30;7.43;;;;;;;41.61;12.32;100435.31;5089826;28;20043;-57
2022/05/04 10:04:28;;;;;;;9.68;7.15;;;;;;;40.74;13.08;100441.59;5090008;28;20052;-58
2022/05/04 10:06:56;;;;;;;8.38;7.47;;;;;;;40.23;13.14;100443.47;5089908;28;20056;-57
2022/05/04 10:09:24;;;;;;;9.32;7.38;;;;;;;40.97;13.20;100429.91;5088352;28;20047;-58
2022/05/04 10:11:56;;;;;;;;;;;;;;;40.97;13.01;100442.44;5086716;28;20056;-58
2022/05/04 10:14:24;;;;;;;8.90;8.02;;;;;;;39.46;13.49;100445.34;5088307;28;20277;-56
2022/05/04 10:16:58;;;;;;;14.05;9.35;;;;;;;38.74;13.93;100438.25;5087515;28;20048;-58
2022/05/04 10:19:30;;;;;;;10.95;9.73;;;;;;;37.82;14.51;100446.31;5088121;28;20052;-58
2022/05/04 10:22:04;;;;;;;11.45;10.25;;;;;;;37.12;15.66;100447.78;5090522;28;20503;-59
2022/05/04 10:24:35;;;;;;;12.27;9.75;;;;;;;37.85;15.53;100439.47;5088552;28;20503;-59
2022/05/04 10:27:16;;;;;;;11.95;10.50;;;;;;;38.31;14.79;100438.00;5088654;28;20485;-60
2022/05/04 10:32:32;;;;;;;10.57;9.57;;;;;;;39.50;13.53;100437.97;5090569;28;20052;-60
2022/05/04 10:35:21;;;;;;;10.75;9.55;;;;;;;39.43;13.91;100435.53;5084404;28;20408;-60
2022/05/04 10:38:11;;;;;;;9.60;8.70;;;;;;;38.18;14.38;100438.38;5081971;28;20496;-59
2022/05/04 10:40:41;;;;;;;11.27;10.18;;;;;;;36.47;16.17;100433.03;5087685;28;20052;-59
2022/05/04 10:43:11;;;;;;;10.98;9.90;;;;;;;35.53;16.25;100441.94;5094394;28;20052;-59
2022/05/04 10:45:40;;;;;;;12.23;9.40;;;;;;;35.06;17.35;100444.16;5084514;28;20071;-59
2022/05/04 10:48:30;;;;;;;13.43;10.80;;;;;;;34.42;17.21;100442.13;5084714;28;20063;-59
2022/05/04 10:51:02;;;;;;;12.30;11.10;;;;;;;34.34;18.17;100441.63;5086858;28;20055;-59
2022/05/04 10:53:43;;;;;;;13.43;11.27;;;;;;;33.65;17.83;100444.97;5092450;28;20052;-59
2022/05/04 10:56:14;;;;;;;13.52;10.75;;;;;;;32.86;18.72;100442.25;5088238;28;20059;-59
2022/05/04 10:58:47;;;;;;;11.73;10.55;;;;;;;32.75;19.34;100440.56;5094116;28;20059;-59
2022/05/04 11:01:18;;;;;;;13.32;11.77;;;;;;;32.85;19.21;100429.13;5086273;28;20056;-59
2022/05/04 11:04:03;;;;;;;13.57;11.55;;;;;;;32.39;19.63;100428.72;5078155;28;20052;-59
2022/05/04 11:06:32;;;;;;;11.45;10.27;;;;;;;31.94;20.29;100427.75;5092050;28;20051;-59
2022/05/04 11:09:06;;;;;;;11.60;9.95;;;;;;;31.80;20.69;100431.97;5092453;28;20055;-57
2022/05/04 11:11:35;;;;;;;14.77;11.43;;;;;;;31.21;21.11;100427.69;5093299;28;20488;-58
2022/05/04 11:14:02;;;;;;;14.13;11.30;;;;;;;30.91;22.09;100430.63;5093068;28;20056;-59
2022/05/04 11:16:30;;;;;;;14.80;12.95;;;;;;;32.03;21.55;100432.88;5089640;28;20056;-59
2022/05/04 11:19:00;;;;;;;15.43;13.45;;;;;;;32.67;20.49;100435.53;5092684;28;20408;-58
2022/05/04 11:21:29;;;;;;;15.18;13.60;;;;;;;32.46;21.25;100440.00;5092080;28;20055;-59
2022/05/04 11:23:58;;;;;;;15.40;13.80;;;;;;;32.13;20.66;100437.47;5090563;28;20376;-59
2022/05/04 11:26:34;;;;;;;15.30;13.25;;;;;;;32.02;21.06;100434.94;5092894;28;20059;-59
2022/05/04 11:29:02;;;;;;;15.35;13.52;;;;;;;31.59;22.04;100426.91;5093014;28;20056;-57
2022/05/04 11:31:30;;;;;;;15.33;13.73;;;;;;;31.30;22.17;100427.78;5091397;28;20148;-58
2022/05/04 11:33:59;;;;;;;17.15;15.45;;;;;;;31.19;22.01;100431.00;5089127;28;20055;-58
2022/05/04 11:36:27;;;;;;;17.42;15.63;;;;;;;30.66;22.07;100425.56;5092032;28;20316;-59
2022/05/04 11:38:57;;;;;;;18.73;16.83;;;;;;;30.21;23.05;100434.97;5092599;28;20476;-58
2022/05/04 11:41:25;;;;;;;16.95;15.05;;;;;;;29.83;23.10;100426.94;5092189;28;20052;-59
2022/05/04 11:43:54;;;;;;;19.20;16.65;;;;;;;29.59;23.85;100423.41;5092477;28;20052;-57
2022/05/04 11:46:21;;;;;;;;;;;;;;;29.24;24.37;100425.06;5092691;28;20056;-58
2022/05/04 11:48:48;;;;;;;19.65;17.60;;;;;;;29.28;24.09;100425.78;5090934;28;19920;-59
2022/05/04 11:51:17;;;;;;;18.50;16.45;;;;;;;29.26;24.90;100431.97;5091952;28;20044;-59
2022/05/04 11:53:45;;;;;;;;;;;;;;;28.99;24.32;100429.25;5092739;28;20062;-58
2022/05/04 11:56:13;;;;;;;17.55;15.27;;;;;;;28.88;24.63;100422.97;5090895;28;19920;-59